Thursday, February 22, 2018 (02:34 UTC)
OPMET DATA  
Terminal Aerodrome Forecast (TAF) and METAR
TAFs are issued by Aviation Meteorological Office, for Abu Dhabi (OMAA), Bateen (OMAD), Al Ain (OMAL), Dubai (OMDB), Al Maktoum (OMDW), Sharjah (OMSJ), Ras Al Khaimah (OMRK) and Fujairah (OMFJ) airports. These TAFs are issued every 6 hours and are valid for a 30 hour period. METARs (Aviation Routine Weather Reports) are updated hourly.
Show ICAO codes
Select OPMET type:        SEARCH   PRINT
Aviation Meteorology - National Center of Meteorology & Seismology (NCMS)
Telephone: +971 2 5757346 / 5053676
Email: metweb@adiamet.gov.ae
Website: www.avmet.ae
METAR OMAA 220200Z 11003KT 6000 NSC 17/15 Q1010 TEMPO 4000 HZ=
METAR OMAD 220200Z VRB01KT 6000 NSC 19/16 Q1011 BECMG 4000 HZ=
METAR OMAL 220200Z 09005KT CAVOK 18/10 Q1011 NOSIG=
METAR OMDB 220200Z 11005KT 8000 NSC 19/15 Q1011 NOSIG=
METAR OMDW 220200Z 10006KT 4000 BR NSC 14/13 Q1012 NOSIG=
METAR OMFJ 220200Z 30005KT 6000 NSC 20/16 Q1011 A2986=
METAR OMSJ 220200Z 11005KT 8000 NSC 15/13 Q1011=
METAR OMRK 220200Z 20004KT 5000 HZ NSC 14/12 Q1011 A2987=
METAR OTBD 220200Z 34003KT CAVOK 19/16 Q1011 NOSIG=
METAR OTHH 220200Z 34005KT CAVOK 18/14 Q1011 NOSIG=
METAR OBBI 220200Z 30003KT 270V330 8000 NSC 19/16 Q1012 NOSIG=
METAR OEDF 220200Z 00000KT 9999 FEW040 17/13 Q1011 NOSIG=
METAR OEDR 220200Z 35004KT CAVOK 17/13 Q1010 NOSIG=
METAR OEJN 220200Z 00000KT 9999 FEW040 24/19 Q1007 NOSIG=
METAR OEMA 220200Z 00000KT 9999 FEW045 21/11 Q1012 NOSIG=
METAR OEPA 220200Z 18013KT 8000 BKN035 17/08 Q1010 NOSIG=
METAR OERF 220200Z 25003KT CAVOK 13/01 Q1009=
METAR OERK 220200Z 32005KT 9000 DZ NSC 18/08 Q1014 NOSIG=
METAR OERR 220200Z 28007KT CAVOK 10/07 Q1010 NOSIG=
METAR OERY NIL=
METAR OESH 220200Z 19005KT 9999 FEW040 20/04 Q1011 NOSIG=
METAR OETB 220200Z 00000KT 9999 FEW040 10/M05 Q1011 NOSIG=
METAR OETF 220200Z 06003KT 1500 BR NSC 15/14 Q1016 NOSIG=
METAR OETR 220200Z 02004KT CAVOK 08/05 Q1011=
METAR OEWD 220200Z 26004KT CAVOK 17/11 Q1011 NOSIG=
METAR OEWJ 220100Z 05003KT 9999 FEW040 15/10 Q1009 NOSIG=
METAR OEYN 220200Z 00000KT 9999 FEW040 SCT100 20/17 Q1007 NOSIG=
METAR OKBK 220200Z 00000KT 9999 DZ FEW040 BKN080 19/08 Q1011 NOSIG=
METAR OOMS 220150Z VRB02KT 7000 HZ NSC 22/19 Q1010 WS R08L NOSIG=
METAR OOSA 220150Z 03005KT 9999 BKN025 22/16 Q1012 NOSIG=
METAR OYSN NIL=
METAR OYAA NIL=
 
Thursday, February 22, 2018 (02:34 UTC)